sensor_id;sensor_type;location;lat;lon;timestamp;P1;durP1;ratioP1;P2;durP2;ratioP2
2860;SDS011;1438;50.922;6.704;2023-04-24T00:00:57;1.47;;;1.07;;
2860;SDS011;1438;50.922;6.704;2023-04-24T00:03:26;1.77;;;1.13;;
2860;SDS011;1438;50.922;6.704;2023-04-24T00:05:53;1.35;;;1.25;;
2860;SDS011;1438;50.922;6.704;2023-04-24T00:08:19;1.60;;;0.90;;
2860;SDS011;1438;50.922;6.704;2023-04-24T00:10:46;1.55;;;1.10;;
2860;SDS011;1438;50.922;6.704;2023-04-24T00:13:12;1.47;;;1.17;;
2860;SDS011;1438;50.922;6.704;2023-04-24T00:15:38;1.20;;;1.00;;
2860;SDS011;1438;50.922;6.704;2023-04-24T00:18:04;1.45;;;1.00;;
2860;SDS011;1438;50.922;6.704;2023-04-24T00:20:30;1.23;;;1.00;;
2860;SDS011;1438;50.922;6.704;2023-04-24T00:23:00;2.55;;;1.13;;
2860;SDS011;1438;50.922;6.704;2023-04-24T00:25:26;1.00;;;0.90;;
2860;SDS011;1438;50.922;6.704;2023-04-24T00:27:52;4.60;;;1.15;;
2860;SDS011;1438;50.922;6.704;2023-04-24T00:30:18;1.10;;;1.00;;
2860;SDS011;1438;50.922;6.704;2023-04-24T00:32:44;1.83;;;1.10;;
2860;SDS011;1438;50.922;6.704;2023-04-24T00:35:10;1.58;;;1.10;;
2860;SDS011;1438;50.922;6.704;2023-04-24T00:37:36;1.33;;;1.23;;
2860;SDS011;1438;50.922;6.704;2023-04-24T00:40:02;1.50;;;1.20;;
2860;SDS011;1438;50.922;6.704;2023-04-24T00:42:28;2.90;;;1.20;;
2860;SDS011;1438;50.922;6.704;2023-04-24T00:44:55;1.30;;;1.20;;
2860;SDS011;1438;50.922;6.704;2023-04-24T00:47:22;2.65;;;1.20;;
2860;SDS011;1438;50.922;6.704;2023-04-24T00:49:48;1.42;;;1.10;;
2860;SDS011;1438;50.922;6.704;2023-04-24T00:52:14;1.77;;;1.17;;
2860;SDS011;1438;50.922;6.704;2023-04-24T00:54:42;2.42;;;1.40;;
2860;SDS011;1438;50.922;6.704;2023-04-24T00:57:08;1.58;;;1.33;;
2860;SDS011;1438;50.922;6.704;2023-04-24T00:59:35;2.45;;;1.55;;
2860;SDS011;1438;50.922;6.704;2023-04-24T01:02:01;1.20;;;1.10;;
2860;SDS011;1438;50.922;6.704;2023-04-24T01:04:28;2.88;;;1.23;;
2860;SDS011;1438;50.922;6.704;2023-04-24T01:06:54;1.48;;;1.38;;
2860;SDS011;1438;50.922;6.704;2023-04-24T01:09:21;3.95;;;1.55;;
2860;SDS011;1438;50.922;6.704;2023-04-24T01:11:49;1.95;;;1.50;;
2860;SDS011;1438;50.922;6.704;2023-04-24T01:14:15;1.83;;;1.70;;
2860;SDS011;1438;50.922;6.704;2023-04-24T01:16:41;3.03;;;2.73;;
2860;SDS011;1438;50.922;6.704;2023-04-24T01:19:07;4.28;;;2.50;;
2860;SDS011;1438;50.922;6.704;2023-04-24T01:21:34;5.43;;;2.95;;
2860;SDS011;1438;50.922;6.704;2023-04-24T01:24:02;3.53;;;3.15;;
2860;SDS011;1438;50.922;6.704;2023-04-24T01:26:28;3.35;;;3.05;;
2860;SDS011;1438;50.922;6.704;2023-04-24T01:28:54;4.18;;;3.08;;
2860;SDS011;1438;50.922;6.704;2023-04-24T01:31:21;7.38;;;3.90;;
2860;SDS011;1438;50.922;6.704;2023-04-24T01:33:47;12.77;;;4.07;;
2860;SDS011;1438;50.922;6.704;2023-04-24T01:36:13;6.03;;;3.42;;
2860;SDS011;1438;50.922;6.704;2023-04-24T01:38:39;7.10;;;4.47;;
2860;SDS011;1438;50.922;6.704;2023-04-24T01:41:05;7.95;;;4.20;;
2860;SDS011;1438;50.922;6.704;2023-04-24T01:43:32;5.25;;;4.45;;
2860;SDS011;1438;50.922;6.704;2023-04-24T01:45:58;4.57;;;4.07;;
2860;SDS011;1438;50.922;6.704;2023-04-24T01:48:24;10.85;;;4.13;;
2860;SDS011;1438;50.922;6.704;2023-04-24T01:50:50;4.63;;;4.18;;
2860;SDS011;1438;50.922;6.704;2023-04-24T01:53:16;8.13;;;4.70;;
2860;SDS011;1438;50.922;6.704;2023-04-24T01:55:42;6.90;;;4.45;;
2860;SDS011;1438;50.922;6.704;2023-04-24T01:58:08;4.05;;;3.60;;
2860;SDS011;1438;50.922;6.704;2023-04-24T02:00:34;10.18;;;6.13;;
2860;SDS011;1438;50.922;6.704;2023-04-24T02:03:00;9.30;;;5.40;;
2860;SDS011;1438;50.922;6.704;2023-04-24T02:05:27;8.75;;;5.75;;
2860;SDS011;1438;50.922;6.704;2023-04-24T02:07:53;7.40;;;6.28;;
2860;SDS011;1438;50.922;6.704;2023-04-24T02:10:19;7.25;;;6.55;;
2860;SDS011;1438;50.922;6.704;2023-04-24T02:12:45;7.57;;;6.07;;
2860;SDS011;1438;50.922;6.704;2023-04-24T02:15:11;7.47;;;6.43;;
2860;SDS011;1438;50.922;6.704;2023-04-24T02:17:37;9.50;;;5.68;;
2860;SDS011;1438;50.922;6.704;2023-04-24T02:20:04;9.95;;;6.03;;
2860;SDS011;1438;50.922;6.704;2023-04-24T02:22:30;8.38;;;4.93;;
2860;SDS011;1438;50.922;6.704;2023-04-24T02:24:56;9.25;;;5.20;;
2860;SDS011;1438;50.922;6.704;2023-04-24T02:27:22;10.93;;;5.93;;
2860;SDS011;1438;50.922;6.704;2023-04-24T02:29:49;8.25;;;5.32;;
2860;SDS011;1438;50.922;6.704;2023-04-24T02:32:15;9.10;;;5.38;;
2860;SDS011;1438;50.922;6.704;2023-04-24T02:34:41;7.95;;;5.75;;
2860;SDS011;1438;50.922;6.704;2023-04-24T02:37:07;10.13;;;5.70;;
2860;SDS011;1438;50.922;6.704;2023-04-24T02:39:33;11.18;;;5.95;;
2860;SDS011;1438;50.922;6.704;2023-04-24T02:41:59;8.40;;;6.27;;
2860;SDS011;1438;50.922;6.704;2023-04-24T02:44:26;8.25;;;6.53;;
2860;SDS011;1438;50.922;6.704;2023-04-24T02:46:52;8.45;;;7.10;;
2860;SDS011;1438;50.922;6.704;2023-04-24T02:49:18;8.60;;;5.25;;
2860;SDS011;1438;50.922;6.704;2023-04-24T02:51:44;8.68;;;7.10;;
2860;SDS011;1438;50.922;6.704;2023-04-24T02:54:10;6.70;;;6.07;;
2860;SDS011;1438;50.922;6.704;2023-04-24T02:56:36;11.25;;;7.07;;
2860;SDS011;1438;50.922;6.704;2023-04-24T02:59:02;12.38;;;6.82;;
2860;SDS011;1438;50.922;6.704;2023-04-24T03:01:28;7.90;;;6.22;;
2860;SDS011;1438;50.922;6.704;2023-04-24T03:03:55;7.85;;;6.05;;
2860;SDS011;1438;50.922;6.704;2023-04-24T03:06:21;9.40;;;7.00;;
2860;SDS011;1438;50.922;6.704;2023-04-24T03:08:47;10.07;;;7.43;;
2860;SDS011;1438;50.922;6.704;2023-04-24T03:11:13;12.57;;;6.53;;
2860;SDS011;1438;50.922;6.704;2023-04-24T03:13:39;8.70;;;7.10;;
2860;SDS011;1438;50.922;6.704;2023-04-24T03:16:05;9.37;;;6.23;;
2860;SDS011;1438;50.922;6.704;2023-04-24T03:18:31;7.93;;;6.70;;
2860;SDS011;1438;50.922;6.704;2023-04-24T03:20:57;9.15;;;6.80;;
2860;SDS011;1438;50.922;6.704;2023-04-24T03:23:24;7.53;;;5.63;;
2860;SDS011;1438;50.922;6.704;2023-04-24T03:25:50;9.10;;;7.18;;
2860;SDS011;1438;50.922;6.704;2023-04-24T03:28:16;8.55;;;6.45;;
2860;SDS011;1438;50.922;6.704;2023-04-24T03:30:42;8.93;;;6.72;;
2860;SDS011;1438;50.922;6.704;2023-04-24T03:33:08;9.10;;;7.72;;
2860;SDS011;1438;50.922;6.704;2023-04-24T03:35:34;9.65;;;7.60;;
2860;SDS011;1438;50.922;6.704;2023-04-24T03:38:01;10.43;;;7.00;;
2860;SDS011;1438;50.922;6.704;2023-04-24T03:40:29;7.43;;;6.07;;
2860;SDS011;1438;50.922;6.704;2023-04-24T03:42:55;7.63;;;6.25;;
2860;SDS011;1438;50.922;6.704;2023-04-24T03:45:21;12.13;;;6.13;;
2860;SDS011;1438;50.922;6.704;2023-04-24T03:47:47;7.88;;;6.70;;
2860;SDS011;1438;50.922;6.704;2023-04-24T03:50:13;7.95;;;5.75;;
2860;SDS011;1438;50.922;6.704;2023-04-24T03:52:39;7.65;;;6.07;;
2860;SDS011;1438;50.922;6.704;2023-04-24T03:55:05;7.63;;;6.63;;
2860;SDS011;1438;50.922;6.704;2023-04-24T03:57:32;7.80;;;6.15;;
2860;SDS011;1438;50.922;6.704;2023-04-24T03:59:58;8.65;;;6.65;;
2860;SDS011;1438;50.922;6.704;2023-04-24T04:02:24;7.75;;;6.07;;
2860;SDS011;1438;50.922;6.704;2023-04-24T04:04:50;10.40;;;6.20;;
2860;SDS011;1438;50.922;6.704;2023-04-24T04:07:16;10.10;;;7.15;;
2860;SDS011;1438;50.922;6.704;2023-04-24T04:09:42;8.25;;;6.13;;
2860;SDS011;1438;50.922;6.704;2023-04-24T04:12:08;7.68;;;6.90;;
2860;SDS011;1438;50.922;6.704;2023-04-24T04:14:34;7.55;;;5.38;;
2860;SDS011;1438;50.922;6.704;2023-04-24T04:17:01;9.57;;;5.97;;
2860;SDS011;1438;50.922;6.704;2023-04-24T04:19:26;11.40;;;6.57;;
2860;SDS011;1438;50.922;6.704;2023-04-24T04:21:53;13.05;;;7.25;;
2860;SDS011;1438;50.922;6.704;2023-04-24T04:24:21;8.57;;;5.50;;
2860;SDS011;1438;50.922;6.704;2023-04-24T04:26:47;7.05;;;6.35;;
2860;SDS011;1438;50.922;6.704;2023-04-24T04:29:15;7.03;;;5.60;;
2860;SDS011;1438;50.922;6.704;2023-04-24T04:31:41;6.68;;;5.53;;
2860;SDS011;1438;50.922;6.704;2023-04-24T04:34:07;7.65;;;5.22;;
2860;SDS011;1438;50.922;6.704;2023-04-24T04:36:34;7.70;;;5.25;;
2860;SDS011;1438;50.922;6.704;2023-04-24T04:39:01;5.10;;;3.92;;
2860;SDS011;1438;50.922;6.704;2023-04-24T04:41:30;6.53;;;4.32;;
2860;SDS011;1438;50.922;6.704;2023-04-24T04:43:56;5.65;;;5.05;;
2860;SDS011;1438;50.922;6.704;2023-04-24T04:46:23;5.75;;;4.18;;
2860;SDS011;1438;50.922;6.704;2023-04-24T04:48:51;5.40;;;4.40;;
2860;SDS011;1438;50.922;6.704;2023-04-24T04:51:17;7.22;;;5.68;;
2860;SDS011;1438;50.922;6.704;2023-04-24T04:53:43;6.43;;;4.15;;
2860;SDS011;1438;50.922;6.704;2023-04-24T04:56:09;5.72;;;5.10;;
2860;SDS011;1438;50.922;6.704;2023-04-24T04:58:35;16.90;;;5.80;;
2860;SDS011;1438;50.922;6.704;2023-04-24T05:01:01;7.72;;;5.00;;
2860;SDS011;1438;50.922;6.704;2023-04-24T05:03:27;6.13;;;5.53;;
2860;SDS011;1438;50.922;6.704;2023-04-24T05:05:53;6.85;;;5.80;;
2860;SDS011;1438;50.922;6.704;2023-04-24T05:08:19;5.97;;;5.38;;
2860;SDS011;1438;50.922;6.704;2023-04-24T05:10:46;5.43;;;3.90;;
2860;SDS011;1438;50.922;6.704;2023-04-24T05:13:12;6.68;;;5.60;;
2860;SDS011;1438;50.922;6.704;2023-04-24T05:15:38;8.00;;;4.63;;
2860;SDS011;1438;50.922;6.704;2023-04-24T05:18:04;6.47;;;5.18;;
2860;SDS011;1438;50.922;6.704;2023-04-24T05:20:30;11.23;;;5.88;;
2860;SDS011;1438;50.922;6.704;2023-04-24T05:22:56;6.75;;;5.22;;
2860;SDS011;1438;50.922;6.704;2023-04-24T05:25:22;9.82;;;4.50;;
2860;SDS011;1438;50.922;6.704;2023-04-24T05:27:48;7.70;;;6.18;;
2860;SDS011;1438;50.922;6.704;2023-04-24T05:30:14;10.52;;;4.43;;
2860;SDS011;1438;50.922;6.704;2023-04-24T05:32:40;6.65;;;4.68;;
2860;SDS011;1438;50.922;6.704;2023-04-24T05:35:06;14.77;;;6.57;;
2860;SDS011;1438;50.922;6.704;2023-04-24T05:37:32;8.68;;;5.60;;
2860;SDS011;1438;50.922;6.704;2023-04-24T05:39:58;5.90;;;5.00;;
2860;SDS011;1438;50.922;6.704;2023-04-24T05:42:24;6.15;;;4.65;;
2860;SDS011;1438;50.922;6.704;2023-04-24T05:44:50;6.65;;;4.57;;
2860;SDS011;1438;50.922;6.704;2023-04-24T05:47:18;6.05;;;4.50;;
2860;SDS011;1438;50.922;6.704;2023-04-24T05:49:46;5.75;;;3.97;;
2860;SDS011;1438;50.922;6.704;2023-04-24T05:52:12;6.45;;;4.35;;
2860;SDS011;1438;50.922;6.704;2023-04-24T05:54:38;8.38;;;4.05;;
2860;SDS011;1438;50.922;6.704;2023-04-24T05:57:04;4.45;;;3.15;;
2860;SDS011;1438;50.922;6.704;2023-04-24T05:59:41;3.67;;;2.60;;
2860;SDS011;1438;50.922;6.704;2023-04-24T06:02:07;4.50;;;3.72;;
2860;SDS011;1438;50.922;6.704;2023-04-24T06:04:33;4.63;;;2.72;;
2860;SDS011;1438;50.922;6.704;2023-04-24T06:07:00;4.38;;;3.20;;
2860;SDS011;1438;50.922;6.704;2023-04-24T06:09:26;3.47;;;3.15;;
2860;SDS011;1438;50.922;6.704;2023-04-24T06:11:52;3.00;;;2.75;;
2860;SDS011;1438;50.922;6.704;2023-04-24T06:14:18;2.42;;;2.20;;
2860;SDS011;1438;50.922;6.704;2023-04-24T06:16:45;5.72;;;2.30;;
2860;SDS011;1438;50.922;6.704;2023-04-24T06:19:11;3.40;;;2.45;;
2860;SDS011;1438;50.922;6.704;2023-04-24T06:21:37;3.53;;;1.90;;
2860;SDS011;1438;50.922;6.704;2023-04-24T06:24:03;3.35;;;2.10;;
2860;SDS011;1438;50.922;6.704;2023-04-24T06:26:29;2.78;;;2.00;;
2860;SDS011;1438;50.922;6.704;2023-04-24T06:28:55;2.40;;;2.15;;
2860;SDS011;1438;50.922;6.704;2023-04-24T06:31:23;2.67;;;1.52;;
2860;SDS011;1438;50.922;6.704;2023-04-24T06:33:49;2.97;;;2.47;;
2860;SDS011;1438;50.922;6.704;2023-04-24T06:36:15;3.75;;;1.98;;
2860;SDS011;1438;50.922;6.704;2023-04-24T06:38:41;3.45;;;2.38;;
2860;SDS011;1438;50.922;6.704;2023-04-24T06:41:07;2.65;;;2.45;;
2860;SDS011;1438;50.922;6.704;2023-04-24T06:43:33;2.70;;;2.47;;
2860;SDS011;1438;50.922;6.704;2023-04-24T06:45:59;2.75;;;2.55;;
2860;SDS011;1438;50.922;6.704;2023-04-24T06:48:25;3.80;;;2.72;;
2860;SDS011;1438;50.922;6.704;2023-04-24T06:50:52;3.45;;;3.15;;
2860;SDS011;1438;50.922;6.704;2023-04-24T06:53:18;4.38;;;3.42;;
2860;SDS011;1438;50.922;6.704;2023-04-24T06:55:44;3.63;;;3.33;;
2860;SDS011;1438;50.922;6.704;2023-04-24T06:58:11;5.78;;;3.20;;
2860;SDS011;1438;50.922;6.704;2023-04-24T07:00:37;5.25;;;4.13;;
2860;SDS011;1438;50.922;6.704;2023-04-24T07:03:03;4.80;;;3.05;;
2860;SDS011;1438;50.922;6.704;2023-04-24T07:05:32;5.22;;;3.75;;
2860;SDS011;1438;50.922;6.704;2023-04-24T07:08:00;4.22;;;3.83;;
2860;SDS011;1438;50.922;6.704;2023-04-24T07:10:26;2.80;;;2.10;;
2860;SDS011;1438;50.922;6.704;2023-04-24T07:12:53;5.07;;;3.80;;
2860;SDS011;1438;50.922;6.704;2023-04-24T07:15:20;6.53;;;3.85;;
2860;SDS011;1438;50.922;6.704;2023-04-24T07:17:47;3.67;;;2.78;;
2860;SDS011;1438;50.922;6.704;2023-04-24T07:20:13;3.45;;;2.70;;
2860;SDS011;1438;50.922;6.704;2023-04-24T07:22:39;2.85;;;1.98;;
2860;SDS011;1438;50.922;6.704;2023-04-24T07:25:06;2.35;;;2.15;;
2860;SDS011;1438;50.922;6.704;2023-04-24T07:27:32;4.95;;;3.38;;
2860;SDS011;1438;50.922;6.704;2023-04-24T07:29:58;2.45;;;2.03;;
2860;SDS011;1438;50.922;6.704;2023-04-24T07:32:24;2.00;;;1.73;;
2860;SDS011;1438;50.922;6.704;2023-04-24T07:34:50;2.33;;;1.45;;
2860;SDS011;1438;50.922;6.704;2023-04-24T07:37:16;7.63;;;2.20;;
2860;SDS011;1438;50.922;6.704;2023-04-24T07:39:42;3.05;;;2.00;;
2860;SDS011;1438;50.922;6.704;2023-04-24T07:42:08;3.35;;;1.90;;
2860;SDS011;1438;50.922;6.704;2023-04-24T07:44:34;3.03;;;1.80;;
2860;SDS011;1438;50.922;6.704;2023-04-24T07:47:01;2.03;;;1.75;;
2860;SDS011;1438;50.922;6.704;2023-04-24T07:49:27;2.45;;;1.48;;
2860;SDS011;1438;50.922;6.704;2023-04-24T07:51:53;2.08;;;1.88;;
2860;SDS011;1438;50.922;6.704;2023-04-24T07:54:19;2.50;;;2.08;;
2860;SDS011;1438;50.922;6.704;2023-04-24T07:56:45;3.08;;;2.78;;
2860;SDS011;1438;50.922;6.704;2023-04-24T07:59:12;4.82;;;2.90;;
2860;SDS011;1438;50.922;6.704;2023-04-24T08:01:38;4.18;;;2.22;;
2860;SDS011;1438;50.922;6.704;2023-04-24T08:04:04;1.67;;;1.58;;
2860;SDS011;1438;50.922;6.704;2023-04-24T08:06:30;3.78;;;1.75;;
2860;SDS011;1438;50.922;6.704;2023-04-24T08:08:56;2.35;;;1.85;;
2860;SDS011;1438;50.922;6.704;2023-04-24T08:11:23;5.43;;;2.88;;
2860;SDS011;1438;50.922;6.704;2023-04-24T08:13:49;2.17;;;1.98;;
2860;SDS011;1438;50.922;6.704;2023-04-24T08:16:15;2.30;;;1.48;;
2860;SDS011;1438;50.922;6.704;2023-04-24T08:18:41;1.70;;;1.35;;
2860;SDS011;1438;50.922;6.704;2023-04-24T08:21:07;2.73;;;1.37;;
2860;SDS011;1438;50.922;6.704;2023-04-24T08:23:33;3.58;;;1.60;;
2860;SDS011;1438;50.922;6.704;2023-04-24T08:25:59;3.45;;;1.38;;
2860;SDS011;1438;50.922;6.704;2023-04-24T08:28:25;3.40;;;2.30;;
2860;SDS011;1438;50.922;6.704;2023-04-24T08:30:51;2.07;;;1.83;;
2860;SDS011;1438;50.922;6.704;2023-04-24T08:33:20;3.45;;;2.17;;
2860;SDS011;1438;50.922;6.704;2023-04-24T08:35:46;2.95;;;2.70;;
2860;SDS011;1438;50.922;6.704;2023-04-24T08:38:11;4.35;;;2.60;;
2860;SDS011;1438;50.922;6.704;2023-04-24T08:40:37;5.43;;;3.80;;
2860;SDS011;1438;50.922;6.704;2023-04-24T08:43:04;3.25;;;2.95;;
2860;SDS011;1438;50.922;6.704;2023-04-24T08:45:30;5.35;;;3.55;;
2860;SDS011;1438;50.922;6.704;2023-04-24T08:47:58;6.28;;;3.63;;
2860;SDS011;1438;50.922;6.704;2023-04-24T08:50:24;6.10;;;3.90;;
2860;SDS011;1438;50.922;6.704;2023-04-24T08:52:51;6.00;;;4.43;;
2860;SDS011;1438;50.922;6.704;2023-04-24T08:55:18;4.38;;;3.70;;
2860;SDS011;1438;50.922;6.704;2023-04-24T08:57:45;7.95;;;5.60;;
2860;SDS011;1438;50.922;6.704;2023-04-24T09:00:14;9.18;;;5.72;;
2860;SDS011;1438;50.922;6.704;2023-04-24T09:02:43;9.88;;;4.50;;
2860;SDS011;1438;50.922;6.704;2023-04-24T09:05:10;6.90;;;5.80;;
2860;SDS011;1438;50.922;6.704;2023-04-24T09:07:38;8.77;;;5.95;;
2860;SDS011;1438;50.922;6.704;2023-04-24T09:10:05;8.10;;;5.05;;
2860;SDS011;1438;50.922;6.704;2023-04-24T09:12:32;10.18;;;5.93;;
2860;SDS011;1438;50.922;6.704;2023-04-24T09:14:59;8.57;;;4.97;;
2860;SDS011;1438;50.922;6.704;2023-04-24T09:17:26;6.60;;;4.43;;
2860;SDS011;1438;50.922;6.704;2023-04-24T09:19:53;13.27;;;8.35;;
2860;SDS011;1438;50.922;6.704;2023-04-24T09:22:19;8.50;;;6.13;;
2860;SDS011;1438;50.922;6.704;2023-04-24T09:24:45;9.40;;;7.25;;
2860;SDS011;1438;50.922;6.704;2023-04-24T09:27:11;16.58;;;8.15;;
2860;SDS011;1438;50.922;6.704;2023-04-24T09:29:38;12.10;;;8.00;;
2860;SDS011;1438;50.922;6.704;2023-04-24T09:32:20;12.68;;;8.80;;
2860;SDS011;1438;50.922;6.704;2023-04-24T09:34:47;15.00;;;8.55;;
2860;SDS011;1438;50.922;6.704;2023-04-24T09:37:29;10.57;;;8.07;;
2860;SDS011;1438;50.922;6.704;2023-04-24T09:40:07;15.00;;;9.25;;
2860;SDS011;1438;50.922;6.704;2023-04-24T09:42:33;19.38;;;10.18;;
2860;SDS011;1438;50.922;6.704;2023-04-24T09:44:59;9.70;;;7.82;;
2860;SDS011;1438;50.922;6.704;2023-04-24T09:47:25;15.03;;;8.90;;
2860;SDS011;1438;50.922;6.704;2023-04-24T09:49:51;10.33;;;6.73;;
2860;SDS011;1438;50.922;6.704;2023-04-24T09:52:23;11.15;;;7.45;;
2860;SDS011;1438;50.922;6.704;2023-04-24T09:54:53;10.82;;;6.40;;
2860;SDS011;1438;50.922;6.704;2023-04-24T09:57:19;4.75;;;4.15;;
2860;SDS011;1438;50.922;6.704;2023-04-24T09:59:45;9.57;;;6.53;;
2860;SDS011;1438;50.922;6.704;2023-04-24T10:02:16;13.23;;;6.85;;
2860;SDS011;1438;50.922;6.704;2023-04-24T10:04:53;9.15;;;6.63;;
2860;SDS011;1438;50.922;6.704;2023-04-24T10:07:20;12.88;;;6.95;;
2860;SDS011;1438;50.922;6.704;2023-04-24T10:09:46;10.02;;;6.28;;
2860;SDS011;1438;50.922;6.704;2023-04-24T10:12:12;8.60;;;4.87;;
2860;SDS011;1438;50.922;6.704;2023-04-24T10:14:38;7.15;;;4.55;;
2860;SDS011;1438;50.922;6.704;2023-04-24T10:17:04;8.57;;;6.43;;
2860;SDS011;1438;50.922;6.704;2023-04-24T10:19:31;9.23;;;5.60;;
2860;SDS011;1438;50.922;6.704;2023-04-24T10:21:58;7.22;;;4.88;;
2860;SDS011;1438;50.922;6.704;2023-04-24T10:24:24;11.15;;;6.70;;
2860;SDS011;1438;50.922;6.704;2023-04-24T10:26:50;7.32;;;5.47;;
2860;SDS011;1438;50.922;6.704;2023-04-24T10:29:17;5.53;;;3.88;;
2860;SDS011;1438;50.922;6.704;2023-04-24T10:31:43;15.32;;;6.40;;
2860;SDS011;1438;50.922;6.704;2023-04-24T10:34:13;10.98;;;6.50;;
2860;SDS011;1438;50.922;6.704;2023-04-24T10:36:40;9.30;;;7.03;;
2860;SDS011;1438;50.922;6.704;2023-04-24T10:39:08;10.82;;;6.03;;
2860;SDS011;1438;50.922;6.704;2023-04-24T10:41:36;13.88;;;6.75;;
2860;SDS011;1438;50.922;6.704;2023-04-24T10:44:10;16.92;;;6.88;;
2860;SDS011;1438;50.922;6.704;2023-04-24T10:46:36;8.48;;;6.07;;
2860;SDS011;1438;50.922;6.704;2023-04-24T10:49:06;9.32;;;5.00;;
2860;SDS011;1438;50.922;6.704;2023-04-24T10:51:52;10.80;;;6.13;;
2860;SDS011;1438;50.922;6.704;2023-04-24T10:54:40;7.95;;;5.95;;
2860;SDS011;1438;50.922;6.704;2023-04-24T10:59:47;11.30;;;6.65;;
2860;SDS011;1438;50.922;6.704;2023-04-24T11:02:16;12.38;;;6.68;;
2860;SDS011;1438;50.922;6.704;2023-04-24T11:04:42;9.63;;;5.85;;
2860;SDS011;1438;50.922;6.704;2023-04-24T11:07:09;16.70;;;7.80;;
2860;SDS011;1438;50.922;6.704;2023-04-24T11:09:35;12.18;;;6.57;;
2860;SDS011;1438;50.922;6.704;2023-04-24T11:12:05;15.02;;;6.88;;
2860;SDS011;1438;50.922;6.704;2023-04-24T11:17:30;17.67;;;8.20;;
2860;SDS011;1438;50.922;6.704;2023-04-24T11:20:17;12.43;;;7.43;;
2860;SDS011;1438;50.922;6.704;2023-04-24T11:22:43;7.90;;;6.55;;
2860;SDS011;1438;50.922;6.704;2023-04-24T11:25:09;11.18;;;6.57;;
2860;SDS011;1438;50.922;6.704;2023-04-24T11:30:06;13.40;;;7.10;;
2860;SDS011;1438;50.922;6.704;2023-04-24T11:34:59;12.13;;;7.57;;
2860;SDS011;1438;50.922;6.704;2023-04-24T11:37:26;8.68;;;6.45;;
2860;SDS011;1438;50.922;6.704;2023-04-24T11:39:53;10.07;;;7.00;;
2860;SDS011;1438;50.922;6.704;2023-04-24T11:42:21;14.93;;;5.95;;
2860;SDS011;1438;50.922;6.704;2023-04-24T11:44:47;8.88;;;6.07;;
2860;SDS011;1438;50.922;6.704;2023-04-24T11:47:14;9.32;;;6.32;;
2860;SDS011;1438;50.922;6.704;2023-04-24T11:49:40;5.28;;;4.75;;
2860;SDS011;1438;50.922;6.704;2023-04-24T11:52:06;8.02;;;5.30;;
2860;SDS011;1438;50.922;6.704;2023-04-24T11:54:32;20.03;;;6.40;;
2860;SDS011;1438;50.922;6.704;2023-04-24T11:56:58;8.73;;;5.07;;
2860;SDS011;1438;50.922;6.704;2023-04-24T11:59:25;6.68;;;5.30;;
2860;SDS011;1438;50.922;6.704;2023-04-24T12:01:50;11.43;;;4.90;;
2860;SDS011;1438;50.922;6.704;2023-04-24T12:04:17;8.70;;;4.43;;
2860;SDS011;1438;50.922;6.704;2023-04-24T12:07:02;11.85;;;4.72;;
2860;SDS011;1438;50.922;6.704;2023-04-24T12:09:40;10.38;;;4.07;;
2860;SDS011;1438;50.922;6.704;2023-04-24T12:12:06;7.78;;;4.68;;
2860;SDS011;1438;50.922;6.704;2023-04-24T12:14:32;7.82;;;4.90;;
2860;SDS011;1438;50.922;6.704;2023-04-24T12:16:58;6.55;;;3.63;;
2860;SDS011;1438;50.922;6.704;2023-04-24T12:19:24;11.65;;;4.97;;
2860;SDS011;1438;50.922;6.704;2023-04-24T12:22:00;6.03;;;3.83;;
2860;SDS011;1438;50.922;6.704;2023-04-24T12:24:26;13.48;;;3.95;;
2860;SDS011;1438;50.922;6.704;2023-04-24T12:26:52;6.88;;;4.10;;
2860;SDS011;1438;50.922;6.704;2023-04-24T12:29:20;9.40;;;3.42;;
2860;SDS011;1438;50.922;6.704;2023-04-24T12:31:46;5.25;;;2.42;;
2860;SDS011;1438;50.922;6.704;2023-04-24T12:34:22;6.43;;;3.20;;
2860;SDS011;1438;50.922;6.704;2023-04-24T12:36:48;7.45;;;5.00;;
2860;SDS011;1438;50.922;6.704;2023-04-24T12:39:17;5.57;;;2.80;;
2860;SDS011;1438;50.922;6.704;2023-04-24T12:42:17;13.67;;;3.37;;
2860;SDS011;1438;50.922;6.704;2023-04-24T12:44:36;9.97;;;4.33;;
2860;SDS011;1438;50.922;6.704;2023-04-24T12:47:02;11.43;;;5.10;;
2860;SDS011;1438;50.922;6.704;2023-04-24T12:49:29;9.40;;;4.40;;
2860;SDS011;1438;50.922;6.704;2023-04-24T12:51:56;6.57;;;4.78;;
2860;SDS011;1438;50.922;6.704;2023-04-24T12:54:22;9.30;;;4.80;;
2860;SDS011;1438;50.922;6.704;2023-04-24T12:56:48;8.60;;;4.87;;
2860;SDS011;1438;50.922;6.704;2023-04-24T12:59:14;9.13;;;3.90;;
2860;SDS011;1438;50.922;6.704;2023-04-24T13:01:40;8.43;;;4.10;;
2860;SDS011;1438;50.922;6.704;2023-04-24T13:04:07;7.63;;;4.57;;
2860;SDS011;1438;50.922;6.704;2023-04-24T13:06:33;8.70;;;4.93;;
2860;SDS011;1438;50.922;6.704;2023-04-24T13:08:59;10.33;;;4.70;;
2860;SDS011;1438;50.922;6.704;2023-04-24T13:11:25;7.50;;;4.88;;
2860;SDS011;1438;50.922;6.704;2023-04-24T13:13:51;9.83;;;5.03;;
2860;SDS011;1438;50.922;6.704;2023-04-24T13:16:17;11.10;;;5.50;;
2860;SDS011;1438;50.922;6.704;2023-04-24T13:18:43;8.77;;;4.87;;
2860;SDS011;1438;50.922;6.704;2023-04-24T13:21:09;8.80;;;5.33;;
2860;SDS011;1438;50.922;6.704;2023-04-24T13:23:35;9.33;;;4.90;;
2860;SDS011;1438;50.922;6.704;2023-04-24T13:26:02;9.63;;;5.50;;
2860;SDS011;1438;50.922;6.704;2023-04-24T13:28:28;7.10;;;4.57;;
2860;SDS011;1438;50.922;6.704;2023-04-24T13:30:55;6.83;;;4.70;;
2860;SDS011;1438;50.922;6.704;2023-04-24T13:33:21;8.40;;;4.80;;
2860;SDS011;1438;50.922;6.704;2023-04-24T13:35:47;7.43;;;3.77;;
2860;SDS011;1438;50.922;6.704;2023-04-24T13:38:13;5.83;;;4.70;;
2860;SDS011;1438;50.922;6.704;2023-04-24T13:40:41;7.03;;;4.90;;
2860;SDS011;1438;50.922;6.704;2023-04-24T13:43:07;6.23;;;4.23;;
2860;SDS011;1438;50.922;6.704;2023-04-24T13:45:34;7.07;;;4.20;;
2860;SDS011;1438;50.922;6.704;2023-04-24T13:48:00;7.50;;;4.53;;
2860;SDS011;1438;50.922;6.704;2023-04-24T13:50:27;6.17;;;5.27;;
2860;SDS011;1438;50.922;6.704;2023-04-24T13:52:53;6.73;;;5.03;;
2860;SDS011;1438;50.922;6.704;2023-04-24T13:55:21;9.60;;;5.30;;
2860;SDS011;1438;50.922;6.704;2023-04-24T13:57:47;6.90;;;4.63;;
2860;SDS011;1438;50.922;6.704;2023-04-24T14:00:13;4.47;;;3.60;;
2860;SDS011;1438;50.922;6.704;2023-04-24T14:02:40;7.83;;;4.50;;
2860;SDS011;1438;50.922;6.704;2023-04-24T14:05:06;8.10;;;3.90;;
2860;SDS011;1438;50.922;6.704;2023-04-24T14:07:32;6.00;;;3.60;;
2860;SDS011;1438;50.922;6.704;2023-04-24T14:09:58;9.17;;;4.03;;
2860;SDS011;1438;50.922;6.704;2023-04-24T14:12:24;5.93;;;3.60;;
2860;SDS011;1438;50.922;6.704;2023-04-24T14:14:50;6.60;;;3.97;;
2860;SDS011;1438;50.922;6.704;2023-04-24T14:17:16;10.00;;;3.67;;
2860;SDS011;1438;50.922;6.704;2023-04-24T14:19:42;8.90;;;4.00;;
2860;SDS011;1438;50.922;6.704;2023-04-24T14:22:09;4.40;;;3.97;;
2860;SDS011;1438;50.922;6.704;2023-04-24T14:24:35;5.90;;;3.60;;
2860;SDS011;1438;50.922;6.704;2023-04-24T14:27:01;7.93;;;4.30;;
2860;SDS011;1438;50.922;6.704;2023-04-24T14:29:28;5.97;;;3.80;;
2860;SDS011;1438;50.922;6.704;2023-04-24T14:31:54;7.90;;;4.40;;
2860;SDS011;1438;50.922;6.704;2023-04-24T14:34:20;7.60;;;4.00;;
2860;SDS011;1438;50.922;6.704;2023-04-24T14:36:46;7.07;;;4.43;;
2860;SDS011;1438;50.922;6.704;2023-04-24T14:39:12;8.00;;;3.60;;
2860;SDS011;1438;50.922;6.704;2023-04-24T14:41:38;6.83;;;4.27;;
2860;SDS011;1438;50.922;6.704;2023-04-24T14:44:04;4.43;;;3.57;;
2860;SDS011;1438;50.922;6.704;2023-04-24T14:46:30;9.27;;;4.37;;
2860;SDS011;1438;50.922;6.704;2023-04-24T14:48:57;5.93;;;3.93;;
2860;SDS011;1438;50.922;6.704;2023-04-24T14:51:23;6.13;;;3.73;;
2860;SDS011;1438;50.922;6.704;2023-04-24T14:53:50;7.30;;;4.40;;
2860;SDS011;1438;50.922;6.704;2023-04-24T14:56:16;5.13;;;4.23;;
2860;SDS011;1438;50.922;6.704;2023-04-24T14:58:42;5.07;;;4.27;;
2860;SDS011;1438;50.922;6.704;2023-04-24T15:01:08;10.20;;;4.70;;
2860;SDS011;1438;50.922;6.704;2023-04-24T15:03:34;8.37;;;3.80;;
2860;SDS011;1438;50.922;6.704;2023-04-24T15:06:00;4.33;;;3.73;;
2860;SDS011;1438;50.922;6.704;2023-04-24T15:08:26;6.47;;;4.30;;
2860;SDS011;1438;50.922;6.704;2023-04-24T15:10:52;6.53;;;4.40;;
2860;SDS011;1438;50.922;6.704;2023-04-24T15:13:19;8.70;;;4.50;;
2860;SDS011;1438;50.922;6.704;2023-04-24T15:15:48;9.50;;;3.50;;
2860;SDS011;1438;50.922;6.704;2023-04-24T15:18:14;9.40;;;4.20;;
2860;SDS011;1438;50.922;6.704;2023-04-24T15:20:40;8.80;;;4.90;;